createdAt,value
2018-07-05T00:01:23.890Z,95238.00
2018-07-05T00:04:09.814Z,95248.00
2018-07-05T00:06:55.851Z,95247.00
2018-07-05T00:09:41.945Z,95231.00
2018-07-05T00:12:27.992Z,95239.00
2018-07-05T00:15:14.195Z,95242.00
2018-07-05T00:18:00.107Z,95242.00
2018-07-05T00:20:46.943Z,95239.00
2018-07-05T00:23:33.038Z,95232.00
2018-07-05T00:26:19.069Z,95251.00
2018-07-05T00:29:05.071Z,95245.00
2018-07-05T00:31:51.078Z,95244.00
2018-07-05T00:34:37.105Z,95246.00
2018-07-05T00:37:23.015Z,95244.00
2018-07-05T00:40:09.114Z,95255.00
2018-07-05T00:42:55.238Z,95258.00
2018-07-05T00:45:41.026Z,95261.00
2018-07-05T00:48:27.101Z,95257.00
2018-07-05T00:51:12.951Z,95246.00
2018-07-05T00:53:58.971Z,95237.00
2018-07-05T00:56:44.859Z,95240.00
2018-07-05T00:59:30.839Z,95239.00
2018-07-05T01:02:17.337Z,95235.00
2018-07-05T01:05:03.385Z,95222.00
2018-07-05T01:07:49.398Z,95224.00
2018-07-05T01:10:35.421Z,95217.00
2018-07-05T01:13:21.445Z,95219.00
2018-07-05T01:16:07.474Z,95217.00
2018-07-05T01:18:53.522Z,95216.00
2018-07-05T01:21:39.548Z,95222.00
2018-07-05T01:24:25.499Z,95220.00
2018-07-05T01:27:11.419Z,95218.00
2018-07-05T01:29:57.446Z,95233.00
2018-07-05T01:32:43.423Z,95216.00
2018-07-05T01:35:29.413Z,95215.00
2018-07-05T01:38:15.406Z,95212.00
2018-07-05T01:41:01.386Z,95211.00
2018-07-05T01:43:47.765Z,95216.00
2018-07-05T01:46:33.788Z,95221.00
2018-07-05T01:49:19.862Z,95216.00
2018-07-05T01:52:10.034Z,95219.00
2018-07-05T01:54:55.911Z,95213.00
2018-07-05T01:57:41.727Z,95212.00
2018-07-05T02:00:27.742Z,95214.00
2018-07-05T02:03:13.729Z,95216.00
2018-07-05T02:05:59.683Z,95219.00
2018-07-05T02:08:45.649Z,95220.00
2018-07-05T02:11:31.620Z,95224.00
2018-07-05T02:14:17.563Z,95227.00
2018-07-05T02:17:03.516Z,95218.00
2018-07-05T02:19:49.435Z,95212.00
2018-07-05T02:22:35.303Z,95214.00
2018-07-05T02:25:21.156Z,95207.00
2018-07-05T02:28:07.214Z,95213.00
2018-07-05T02:30:53.110Z,95219.00
2018-07-05T02:33:39.091Z,95217.00
2018-07-05T02:36:24.927Z,95225.00
2018-07-05T02:39:16.220Z,95235.00
2018-07-05T02:42:02.194Z,95227.00
2018-07-05T02:44:48.103Z,95228.00
2018-07-05T02:47:34.034Z,95230.00
2018-07-05T02:50:19.998Z,95229.00
2018-07-05T02:53:05.984Z,95224.00
2018-07-05T02:55:45.913Z,95206.00
2018-07-05T02:58:31.958Z,95204.00
2018-07-05T03:01:17.729Z,95212.00
2018-07-05T03:04:03.662Z,95197.00
2018-07-05T03:06:49.464Z,95198.00
2018-07-05T03:09:35.378Z,95208.00
2018-07-05T03:12:21.270Z,95192.00
2018-07-05T03:15:07.125Z,95203.00
2018-07-05T03:17:53.116Z,95201.00
2018-07-05T03:20:39.189Z,95201.00
2018-07-05T03:23:25.023Z,95201.00
2018-07-05T03:26:10.948Z,95196.00
2018-07-05T03:28:56.870Z,95198.00
2018-07-05T03:31:42.974Z,95205.00
2018-07-05T03:34:28.968Z,95197.00
2018-07-05T03:37:14.795Z,95210.00
2018-07-05T03:40:00.683Z,95208.00
2018-07-05T03:42:46.603Z,95206.00
2018-07-05T03:45:32.577Z,95205.00
2018-07-05T03:48:18.453Z,95214.00
2018-07-05T03:51:04.382Z,95208.00
2018-07-05T03:53:50.367Z,95207.00
2018-07-05T03:56:36.301Z,95211.00
2018-07-05T03:59:22.198Z,95205.00
2018-07-05T04:02:02.105Z,95204.00
2018-07-05T04:04:48.088Z,95202.00
2018-07-05T04:07:34.162Z,95209.00
2018-07-05T04:10:20.049Z,95215.00
2018-07-05T04:13:05.845Z,95208.00
2018-07-05T04:15:51.698Z,95196.00
2018-07-05T04:18:37.641Z,95195.00
2018-07-05T04:21:23.562Z,95195.00
2018-07-05T04:24:09.497Z,95194.00
2018-07-05T04:26:55.779Z,95191.00
2018-07-05T04:29:41.663Z,95191.00
2018-07-05T04:32:27.453Z,95184.00
2018-07-05T04:35:13.361Z,95189.00
2018-07-05T04:37:59.326Z,95204.00
2018-07-05T04:40:45.297Z,95205.00
2018-07-05T04:43:31.099Z,95207.00
2018-07-05T04:46:17.218Z,95192.00
2018-07-05T04:49:03.118Z,95204.00
2018-07-05T04:51:48.906Z,95182.00
2018-07-05T04:54:34.947Z,95180.00
2018-07-05T04:57:20.979Z,95181.00
2018-07-05T05:00:06.798Z,95190.00
2018-07-05T05:02:52.679Z,95201.00
2018-07-05T05:05:38.495Z,95198.00
2018-07-05T05:08:24.438Z,95205.00
2018-07-05T05:11:10.387Z,95211.00
2018-07-05T05:13:56.274Z,95219.00
2018-07-05T05:16:42.069Z,95209.00
2018-07-05T05:19:27.926Z,95216.00
2018-07-05T05:22:13.808Z,95211.00
2018-07-05T05:24:59.605Z,95209.00
2018-07-05T05:27:45.555Z,95213.00
2018-07-05T05:30:31.465Z,95216.00
2018-07-05T05:33:17.518Z,95215.00
2018-07-05T05:36:03.455Z,95211.00
2018-07-05T05:38:49.310Z,95217.00
2018-07-05T05:41:35.161Z,95216.00
2018-07-05T05:44:21.089Z,95209.00
2018-07-05T05:47:07.089Z,95206.00
2018-07-05T05:49:52.990Z,95214.00
2018-07-05T05:52:38.895Z,95212.00
2018-07-05T05:55:24.915Z,95210.00
2018-07-05T05:58:10.936Z,95212.00
2018-07-05T06:00:57.186Z,95215.00
2018-07-05T06:03:43.270Z,95206.00
2018-07-05T06:06:29.139Z,95205.00
2018-07-05T06:09:15.089Z,95209.00
2018-07-05T06:12:01.050Z,95222.00
2018-07-05T06:14:46.952Z,95222.00
2018-07-05T06:17:32.854Z,95221.00
2018-07-05T06:20:18.783Z,95213.00
2018-07-05T06:23:04.715Z,95214.00
2018-07-05T06:25:50.730Z,95215.00
2018-07-05T06:28:36.670Z,95211.00
2018-07-05T06:31:22.613Z,95212.00
2018-07-05T06:34:08.621Z,95209.00
2018-07-05T06:36:54.465Z,95215.00
2018-07-05T06:39:40.409Z,95213.00
2018-07-05T06:42:26.169Z,95212.00
2018-07-05T06:45:12.228Z,95203.00
2018-07-05T06:47:58.205Z,95210.00
2018-07-05T06:50:44.165Z,95208.00
2018-07-05T06:53:30.199Z,95213.00
2018-07-05T06:56:16.011Z,95217.00
2018-07-05T06:59:01.798Z,95214.00
2018-07-05T07:01:47.750Z,95216.00
2018-07-05T07:04:33.778Z,95219.00
2018-07-05T07:07:19.650Z,95210.00
2018-07-05T07:10:05.608Z,95222.00
2018-07-05T07:12:51.567Z,95213.00
2018-07-05T07:15:37.438Z,95226.00
2018-07-05T07:18:23.245Z,95232.00
2018-07-05T07:21:09.137Z,95225.00
2018-07-05T07:23:55.169Z,95231.00
2018-07-05T07:26:41.146Z,95226.00
2018-07-05T07:29:27.251Z,95227.00
2018-07-05T07:32:13.154Z,95237.00
2018-07-05T07:34:58.953Z,95231.00
2018-07-05T07:37:44.924Z,95230.00
2018-07-05T07:40:30.752Z,95227.00
2018-07-05T07:42:58.286Z,95228.00
2018-07-05T07:45:25.850Z,95232.00
2018-07-05T07:47:53.333Z,95232.00
2018-07-05T07:50:20.884Z,95229.00
2018-07-05T07:52:48.405Z,95232.00
2018-07-05T07:55:16.193Z,95225.00
2018-07-05T07:57:43.755Z,95226.00
2018-07-05T08:00:11.269Z,95229.00
2018-07-05T08:02:38.814Z,95224.00
2018-07-05T08:05:06.413Z,95225.00
2018-07-05T08:07:33.954Z,95227.00
2018-07-05T08:10:01.665Z,95207.00
2018-07-05T08:12:29.190Z,95214.00
2018-07-05T08:14:56.747Z,95210.00
2018-07-05T08:17:24.250Z,95212.00
2018-07-05T08:19:51.799Z,95209.00
2018-07-05T08:22:20.439Z,95208.00
2018-07-05T08:24:47.931Z,95215.00
2018-07-05T08:27:15.454Z,95208.00
2018-07-05T08:29:42.991Z,95208.00
2018-07-05T08:32:10.510Z,95204.00
2018-07-05T08:34:38.035Z,95206.00
2018-07-05T08:37:05.559Z,95206.00
2018-07-05T08:39:34.305Z,95198.00
2018-07-05T08:42:01.810Z,95195.00
2018-07-05T08:44:29.354Z,95181.00
2018-07-05T08:46:56.964Z,95202.00
2018-07-05T08:49:24.500Z,95197.00
2018-07-05T08:51:52.409Z,95195.00
2018-07-05T08:54:19.996Z,95202.00
2018-07-05T08:56:47.739Z,95196.00
2018-07-05T08:59:15.290Z,95191.00
2018-07-05T09:01:42.818Z,95190.00
2018-07-05T09:04:10.356Z,95193.00
2018-07-05T09:06:37.919Z,95196.00
2018-07-05T09:09:05.799Z,95184.00
2018-07-05T09:11:33.353Z,95187.00
2018-07-05T09:14:00.883Z,95194.00
2018-07-05T09:16:28.504Z,95193.00
2018-07-05T09:18:56.207Z,95202.00
2018-07-05T09:21:23.738Z,95196.00
2018-07-05T09:23:51.277Z,95190.00
2018-07-05T09:26:19.053Z,95193.00
2018-07-05T09:28:46.586Z,95189.00
2018-07-05T09:31:15.615Z,95184.00
2018-07-05T09:33:44.293Z,95193.00
2018-07-05T09:36:11.845Z,95187.00
2018-07-05T09:38:39.371Z,95187.00
2018-07-05T09:41:07.011Z,95183.00
2018-07-05T09:43:34.709Z,95184.00
2018-07-05T09:46:02.239Z,95182.00
2018-07-05T09:48:29.769Z,95188.00
2018-07-05T09:50:58.006Z,95189.00
2018-07-05T09:53:25.798Z,95179.00
2018-07-05T09:55:53.330Z,95180.00
2018-07-05T09:58:20.946Z,95178.00
2018-07-05T10:00:50.694Z,95179.00
2018-07-05T10:03:19.792Z,95165.00
2018-07-05T10:05:47.443Z,95169.00
2018-07-05T10:08:15.735Z,95166.00
2018-07-05T10:10:43.411Z,95159.00
2018-07-05T10:13:11.301Z,95155.00
2018-07-05T10:15:38.719Z,95154.00
2018-07-05T10:18:06.355Z,95156.00
2018-07-05T10:20:34.154Z,95152.00
2018-07-05T10:23:01.671Z,95152.00
2018-07-05T10:25:29.215Z,95149.00
2018-07-05T10:27:56.750Z,95148.00
2018-07-05T10:30:42.682Z,95139.00
2018-07-05T10:33:28.611Z,95141.00
2018-07-05T10:35:57.218Z,95139.00
2018-07-05T10:38:24.759Z,95136.00
2018-07-05T10:41:10.910Z,95133.00
2018-07-05T10:43:57.069Z,95131.00
2018-07-05T10:46:43.070Z,95119.00
2018-07-05T10:49:29.136Z,95129.00
2018-07-05T10:52:15.054Z,95130.00
2018-07-05T10:55:01.978Z,95122.00
2018-07-05T10:57:47.826Z,95127.00
2018-07-05T11:00:35.468Z,95117.00
2018-07-05T11:03:21.558Z,95119.00
2018-07-05T11:06:07.547Z,95109.00
2018-07-05T11:08:53.630Z,95110.00
2018-07-05T11:11:41.053Z,95106.00
2018-07-05T11:14:27.221Z,95110.00
2018-07-05T11:17:13.127Z,95101.00
2018-07-05T11:19:59.058Z,95093.00
2018-07-05T11:22:44.979Z,95096.00
2018-07-05T11:25:30.899Z,95089.00
2018-07-05T11:28:10.957Z,95099.00
2018-07-05T11:30:56.998Z,95102.00
2018-07-05T11:33:43.020Z,95099.00
2018-07-05T11:36:28.953Z,95110.00
2018-07-05T11:39:14.839Z,95108.00
2018-07-05T11:42:00.778Z,95102.00
2018-07-05T11:44:46.662Z,95106.00
2018-07-05T11:47:32.610Z,95117.00
2018-07-05T11:50:18.475Z,95102.00
2018-07-05T11:53:04.651Z,95110.00
2018-07-05T11:55:50.462Z,95102.00
2018-07-05T11:58:36.351Z,95109.00
2018-07-05T12:01:22.219Z,95110.00
2018-07-05T12:04:02.265Z,95104.00
2018-07-05T12:06:48.278Z,95108.00
2018-07-05T12:09:34.094Z,95100.00
2018-07-05T12:12:19.904Z,95112.00
2018-07-05T12:15:05.846Z,95110.00
2018-07-05T12:17:51.802Z,95106.00
2018-07-05T12:20:38.011Z,95109.00
2018-07-05T12:23:24.026Z,95109.00
2018-07-05T12:26:09.887Z,95105.00
2018-07-05T12:28:55.981Z,95109.00
2018-07-05T12:31:41.768Z,95096.00
2018-07-05T12:34:27.610Z,95090.00
2018-07-05T12:37:13.430Z,95095.00
2018-07-05T12:39:59.335Z,95092.00
2018-07-05T12:42:39.218Z,95091.00
2018-07-05T12:45:25.206Z,95093.00
2018-07-05T12:48:11.111Z,95090.00
2018-07-05T12:50:56.944Z,95094.00
2018-07-05T12:53:43.094Z,95092.00
2018-07-05T12:56:28.981Z,95094.00
2018-07-05T12:59:14.844Z,95085.00
2018-07-05T13:01:54.824Z,95086.00
2018-07-05T13:04:40.853Z,95089.00
2018-07-05T13:07:26.754Z,95096.00
2018-07-05T13:10:12.670Z,95096.00
2018-07-05T13:12:58.722Z,95108.00
2018-07-05T13:15:44.582Z,95113.00
2018-07-05T13:18:30.482Z,95112.00
2018-07-05T13:21:16.407Z,95110.00
2018-07-05T13:23:56.390Z,95115.00
2018-07-05T13:26:42.433Z,95118.00
2018-07-05T13:29:28.318Z,95122.00
2018-07-05T13:32:14.259Z,95121.00
2018-07-05T13:35:01.173Z,95128.00
2018-07-05T13:37:47.218Z,95124.00
2018-07-05T13:40:33.462Z,95127.00
2018-07-05T13:43:19.549Z,95137.00
2018-07-05T13:46:05.697Z,95159.00
2018-07-05T13:48:52.130Z,95146.00
2018-07-05T13:51:38.058Z,95161.00
2018-07-05T13:54:24.311Z,95154.00
2018-07-05T13:57:04.467Z,95160.00
2018-07-05T13:59:50.700Z,95172.00
2018-07-05T14:02:36.934Z,95173.00
2018-07-05T14:05:23.250Z,95174.00
2018-07-05T14:08:09.298Z,95182.00
2018-07-05T14:10:55.392Z,95185.00
2018-07-05T14:13:42.284Z,95174.00
2018-07-05T14:16:28.474Z,95164.00
2018-07-05T14:19:18.158Z,95162.00
2018-07-05T14:22:05.138Z,95164.00
2018-07-05T14:24:45.053Z,95165.00
2018-07-05T14:27:31.394Z,95163.00
2018-07-05T14:30:17.524Z,95160.00
2018-07-05T14:33:03.378Z,95158.00
2018-07-05T14:35:49.451Z,95150.00
2018-07-05T14:38:37.441Z,95180.00
2018-07-05T14:41:23.420Z,95176.00
2018-07-05T14:44:09.434Z,95182.00
2018-07-05T14:46:55.998Z,95194.00
2018-07-05T14:49:41.899Z,95190.00
2018-07-05T14:52:27.734Z,95201.00
2018-07-05T14:55:13.644Z,95202.00
2018-07-05T14:57:59.639Z,95210.00
2018-07-05T15:00:45.573Z,95207.00
2018-07-05T15:03:31.478Z,95208.00
2018-07-05T15:06:17.369Z,95215.00
2018-07-05T15:09:03.626Z,95212.00
2018-07-05T15:11:49.532Z,95207.00
2018-07-05T15:14:35.498Z,95208.00
2018-07-05T15:17:21.449Z,95207.00
2018-07-05T15:20:07.275Z,95192.00
2018-07-05T15:22:53.241Z,95198.00
2018-07-05T15:25:39.227Z,95187.00
2018-07-05T15:28:25.181Z,95193.00
2018-07-05T15:31:11.281Z,95184.00
2018-07-05T15:33:57.121Z,95187.00
2018-07-05T15:36:42.946Z,95191.00
2018-07-05T15:39:28.885Z,95192.00
2018-07-05T15:42:14.922Z,95195.00
2018-07-05T15:45:00.897Z,95187.00
2018-07-05T15:47:46.858Z,95184.00
2018-07-05T15:50:32.946Z,95192.00
2018-07-05T15:53:19.029Z,95189.00
2018-07-05T15:56:04.955Z,95194.00
2018-07-05T15:58:50.875Z,95202.00
2018-07-05T16:01:36.731Z,95197.00
2018-07-05T16:04:22.655Z,95202.00
2018-07-05T16:07:08.441Z,95201.00
2018-07-05T16:09:54.390Z,95198.00
2018-07-05T16:12:40.429Z,95209.00
2018-07-05T16:15:26.377Z,95216.00
2018-07-05T16:18:12.541Z,95214.00
2018-07-05T16:20:58.638Z,95220.00
2018-07-05T16:23:45.145Z,95217.00
2018-07-05T16:26:31.023Z,95225.00
2018-07-05T16:29:17.057Z,95223.00
2018-07-05T16:32:03.122Z,95222.00
2018-07-05T16:34:49.266Z,95221.00
2018-07-05T16:37:35.102Z,95220.00
2018-07-05T16:40:21.017Z,95224.00
2018-07-05T16:43:06.930Z,95226.00
2018-07-05T16:45:53.251Z,95225.00
2018-07-05T16:48:39.469Z,95233.00
2018-07-05T16:51:25.262Z,95230.00
2018-07-05T16:54:11.239Z,95223.00
2018-07-05T16:56:57.311Z,95237.00
2018-07-05T16:59:43.410Z,95229.00
2018-07-05T17:02:29.357Z,95226.00
2018-07-05T17:05:15.337Z,95233.00
2018-07-05T17:08:01.343Z,95225.00
2018-07-05T17:10:47.281Z,95233.00
2018-07-05T17:13:33.146Z,95243.00
2018-07-05T17:16:19.139Z,95239.00
2018-07-05T17:19:05.223Z,95250.00
2018-07-05T17:21:51.143Z,95249.00
2018-07-05T17:24:37.689Z,95245.00
2018-07-05T17:27:23.664Z,95254.00
2018-07-05T17:30:09.561Z,95255.00
2018-07-05T17:32:55.555Z,95254.00
2018-07-05T17:35:41.439Z,95253.00
2018-07-05T17:38:27.442Z,95252.00
2018-07-05T17:41:13.370Z,95258.00
2018-07-05T17:43:59.206Z,95267.00
2018-07-05T17:46:45.090Z,95261.00
2018-07-05T17:49:31.025Z,95269.00
2018-07-05T17:52:16.987Z,95273.00
2018-07-05T17:55:02.973Z,95277.00
2018-07-05T17:57:42.870Z,95277.00
2018-07-05T18:00:28.945Z,95287.00
2018-07-05T18:03:14.890Z,95277.00
2018-07-05T18:06:00.977Z,95290.00
2018-07-05T18:08:48.128Z,95285.00
2018-07-05T18:11:34.107Z,95283.00
2018-07-05T18:14:20.045Z,95290.00
2018-07-05T18:17:05.993Z,95292.00
2018-07-05T18:19:52.006Z,95280.00
2018-07-05T18:22:37.967Z,95287.00
2018-07-05T18:25:17.846Z,95283.00
2018-07-05T18:28:04.034Z,95286.00
2018-07-05T18:30:49.903Z,95291.00
2018-07-05T18:33:35.906Z,95281.00
2018-07-05T18:36:21.846Z,95283.00
2018-07-05T18:39:07.656Z,95282.00
2018-07-05T18:41:53.615Z,95296.00
2018-07-05T18:44:39.668Z,95290.00
2018-07-05T18:47:25.739Z,95287.00
2018-07-05T18:50:11.740Z,95290.00
2018-07-05T18:52:57.737Z,95289.00
2018-07-05T18:55:43.572Z,95290.00
2018-07-05T18:58:29.501Z,95292.00
2018-07-05T19:01:15.414Z,95295.00
2018-07-05T19:04:01.599Z,95289.00
2018-07-05T19:06:47.779Z,95291.00
2018-07-05T19:09:33.836Z,95295.00
2018-07-05T19:12:21.301Z,95302.00
2018-07-05T19:15:07.752Z,95307.00
2018-07-05T19:17:54.899Z,95299.00
2018-07-05T19:20:41.186Z,95307.00
2018-07-05T19:23:27.932Z,95300.00
2018-07-05T19:26:14.223Z,95301.00
2018-07-05T19:29:00.530Z,95308.00
2018-07-05T19:31:46.771Z,95306.00
2018-07-05T19:34:33.118Z,95314.00
2018-07-05T19:37:19.454Z,95317.00
2018-07-05T19:40:05.623Z,95318.00
2018-07-05T19:42:51.919Z,95315.00
2018-07-05T19:45:38.018Z,95320.00
2018-07-05T19:48:24.294Z,95325.00
2018-07-05T19:51:10.468Z,95327.00
2018-07-05T19:53:56.722Z,95338.00
2018-07-05T19:56:42.831Z,95343.00
2018-07-05T19:59:22.849Z,95350.00
2018-07-05T20:02:09.202Z,95337.00
2018-07-05T20:04:55.294Z,95347.00
2018-07-05T20:07:41.610Z,95358.00
2018-07-05T20:10:28.434Z,95359.00
2018-07-05T20:13:14.765Z,95362.00
2018-07-05T20:16:00.850Z,95379.00
2018-07-05T20:18:46.946Z,95383.00
2018-07-05T20:21:33.293Z,95384.00
2018-07-05T20:24:19.798Z,95381.00
2018-07-05T20:27:05.870Z,95381.00
2018-07-05T20:29:52.107Z,95378.00
2018-07-05T20:32:38.409Z,95378.00
2018-07-05T20:35:24.562Z,95373.00
2018-07-05T20:38:10.798Z,95378.00
2018-07-05T20:40:56.861Z,95389.00
2018-07-05T20:43:42.957Z,95388.00
2018-07-05T20:46:29.187Z,95389.00
2018-07-05T20:49:15.522Z,95380.00
2018-07-05T20:52:01.926Z,95384.00
2018-07-05T20:54:47.908Z,95381.00
2018-07-05T20:57:34.242Z,95382.00
2018-07-05T21:00:20.321Z,95378.00
2018-07-05T21:03:06.550Z,95380.00
2018-07-05T21:05:52.687Z,95382.00
2018-07-05T21:08:38.973Z,95382.00
2018-07-05T21:11:25.149Z,95385.00
2018-07-05T21:14:11.370Z,95388.00
2018-07-05T21:16:52.670Z,95381.00
2018-07-05T21:19:38.651Z,95376.00
2018-07-05T21:22:24.830Z,95385.00
2018-07-05T21:25:11.102Z,95388.00
2018-07-05T21:27:57.170Z,95388.00
2018-07-05T21:30:43.575Z,95383.00
2018-07-05T21:33:29.982Z,95384.00
2018-07-05T21:36:16.262Z,95393.00
2018-07-05T21:39:02.571Z,95385.00
2018-07-05T21:41:48.820Z,95380.00
2018-07-05T21:44:29.151Z,95380.00
2018-07-05T21:47:15.296Z,95372.00
2018-07-05T21:50:01.583Z,95379.00
2018-07-05T21:52:47.808Z,95386.00
2018-07-05T21:55:33.919Z,95374.00
2018-07-05T21:58:20.176Z,95375.00
2018-07-05T22:01:06.484Z,95383.00
2018-07-05T22:03:52.755Z,95372.00
2018-07-05T22:06:39.154Z,95379.00
2018-07-05T22:09:25.241Z,95369.00
2018-07-05T22:12:11.419Z,95379.00
2018-07-05T22:14:57.583Z,95376.00
2018-07-05T22:17:48.698Z,95382.00
2018-07-05T22:20:40.381Z,95378.00
2018-07-05T22:23:31.901Z,95373.00
2018-07-05T22:26:17.784Z,95369.00
2018-07-05T22:29:09.234Z,95371.00
2018-07-05T22:31:57.023Z,95378.00
2018-07-05T22:34:43.019Z,95383.00
2018-07-05T22:37:29.778Z,95377.00
2018-07-05T22:40:15.994Z,95373.00
2018-07-05T22:43:02.233Z,95373.00
2018-07-05T22:45:48.374Z,95370.00
2018-07-05T22:48:34.796Z,95368.00
2018-07-05T22:51:21.354Z,95370.00
2018-07-05T22:54:07.790Z,95371.00
2018-07-05T22:56:54.011Z,95365.00
2018-07-05T22:59:34.897Z,95366.00
2018-07-05T23:02:21.080Z,95371.00
2018-07-05T23:05:07.263Z,95375.00
2018-07-05T23:07:53.534Z,95373.00
2018-07-05T23:10:34.921Z,95377.00
2018-07-05T23:13:21.046Z,95369.00
2018-07-05T23:16:01.293Z,95377.00
2018-07-05T23:18:47.703Z,95374.00
2018-07-05T23:21:33.883Z,95372.00
2018-07-05T23:24:20.342Z,95367.00
2018-07-05T23:27:06.598Z,95368.00
2018-07-05T23:29:52.889Z,95368.00
2018-07-05T23:32:39.130Z,95366.00
2018-07-05T23:35:25.343Z,95371.00
2018-07-05T23:38:11.722Z,95359.00
2018-07-05T23:40:57.738Z,95371.00
2018-07-05T23:43:43.834Z,95369.00
2018-07-05T23:46:30.310Z,95368.00
2018-07-05T23:49:16.434Z,95361.00
2018-07-05T23:52:02.226Z,95371.00
2018-07-05T23:54:48.310Z,95367.00
2018-07-05T23:57:34.332Z,95356.00
